Time;durP1;ratioP1;P1;durP2;ratioP2;P2;SDS_P1;SDS_P2;PMS_P1;PMS_P2;Temp;Humidity;BMP_temperature;BMP_pressure;BME280_temperature;BME280_humidity;BME280_pressure;Samples;Min_cycle;Max_cycle;Signal;HPM_P1;HPM_P2
2022/12/26 00:01:18;;;;;;;49.00;25.50;;;;;;;8.79;100.00;101122.09;5039526;28;20041;-82
2022/12/26 00:03:44;;;;;;;49.90;25.88;;;;;;;8.82;100.00;101120.88;5026080;28;20051;-82
2022/12/26 00:06:14;;;;;;;52.65;26.95;;;;;;;8.80;100.00;101112.88;5035212;28;20041;-80
2022/12/26 00:08:41;;;;;;;57.80;27.50;;;;;;;8.79;100.00;101121.22;5038149;28;20516;-82
2022/12/26 00:11:06;;;;;;;56.40;29.08;;;;;;;8.81;100.00;101116.47;5030854;28;20480;-82
2022/12/26 00:13:33;;;;;;;50.42;28.30;;;;;;;8.83;100.00;101117.97;5037171;28;20030;-81
2022/12/26 00:15:58;;;;;;;59.60;29.10;;;;;;;8.84;100.00;101127.00;5045506;28;20481;-82
2022/12/26 00:18:24;;;;;;;52.35;26.08;;;;;;;8.84;100.00;101127.88;5035845;28;20037;-80
2022/12/26 00:20:49;;;;;;;45.50;26.90;;;;;;;8.84;100.00;101127.00;5035254;28;20029;-80
2022/12/26 00:23:15;;;;;;;52.25;27.55;;;;;;;8.87;100.00;101140.31;5040442;28;20116;-80
2022/12/26 00:25:40;;;;;;;49.28;27.65;;;;;;;8.83;100.00;101130.78;5042022;28;20020;-80
2022/12/26 00:28:07;;;;;;;50.78;26.13;;;;;;;8.82;100.00;101127.19;5040872;28;20403;-80
2022/12/26 00:30:32;;;;;;;47.88;25.80;;;;;;;8.85;100.00;101139.63;5039016;28;20029;-80
2022/12/26 00:32:57;;;;;;;44.63;25.83;;;;;;;8.81;100.00;101141.03;5039691;28;20040;-79
2022/12/26 00:35:23;;;;;;;43.78;26.42;;;;;;;8.84;100.00;101144.25;5034812;28;20064;-80
2022/12/26 00:37:48;;;;;;;39.72;24.98;;;;;;;8.87;100.00;101143.88;5035783;28;20037;-81
2022/12/26 00:40:14;;;;;;;40.77;25.60;;;;;;;8.87;100.00;101152.09;5041011;28;20609;-81
2022/12/26 00:42:39;;;;;;;41.67;24.20;;;;;;;8.84;100.00;101140.66;5039251;28;20524;-81
2022/12/26 00:45:06;;;;;;;38.75;24.90;;;;;;;8.87;100.00;101140.31;5032617;28;20025;-80
2022/12/26 00:47:32;;;;;;;37.78;23.10;;;;;;;8.84;100.00;101140.66;5037310;28;20018;-81
2022/12/26 00:49:57;;;;;;;35.95;22.80;;;;;;;8.87;100.00;101143.88;5037402;28;20070;-81
2022/12/26 00:52:23;;;;;;;37.15;23.48;;;;;;;8.86;100.00;101144.09;5038934;28;20029;-81
2022/12/26 00:54:48;;;;;;;37.60;23.80;;;;;;;8.84;100.00;101141.53;5039283;28;20096;-79
2022/12/26 00:57:13;;;;;;;35.80;24.02;;;;;;;8.89;100.00;101141.84;5039469;28;20033;-81
2022/12/26 00:59:39;;;;;;;37.88;23.52;;;;;;;8.86;100.00;101125.81;5036939;28;20384;-80
2022/12/26 01:02:36;;;;;;;40.40;24.17;;;;;;;8.87;100.00;101130.22;5032901;28;20067;-82
2022/12/26 01:04:50;;;;;;;36.65;23.92;;;;;;;8.85;100.00;101131.44;5037831;28;20558;-79
2022/12/26 01:07:15;;;;;;;38.33;25.02;;;;;;;8.81;100.00;101117.28;5037369;28;20104;-82
2022/12/26 01:09:40;;;;;;;37.85;23.90;;;;;;;8.78;100.00;101130.47;5035312;28;20059;-80
2022/12/26 01:12:06;;;;;;;43.63;25.67;;;;;;;8.82;100.00;101131.81;5039574;28;20393;-80
2022/12/26 01:14:31;;;;;;;39.80;24.83;;;;;;;8.75;100.00;101131.66;5033892;28;20044;-80
2022/12/26 01:16:57;;;;;;;35.28;23.88;;;;;;;8.70;100.00;101131.34;5036823;28;20060;-81
2022/12/26 01:19:22;;;;;;;38.60;25.30;;;;;;;8.72;100.00;101129.31;5037573;28;20227;-80
2022/12/26 01:21:47;;;;;;;42.75;23.80;;;;;;;8.68;100.00;101121.63;5038091;28;20021;-80
2022/12/26 01:24:14;;;;;;;38.17;24.58;;;;;;;8.65;100.00;101122.00;5036752;28;20053;-80
2022/12/26 01:26:39;;;;;;;35.80;23.27;;;;;;;8.73;100.00;101124.69;5039410;28;20366;-81
2022/12/26 01:29:05;;;;;;;38.70;23.63;;;;;;;8.64;100.00;101120.31;5038571;28;20079;-81
2022/12/26 01:31:30;;;;;;;35.17;22.90;;;;;;;8.65;100.00;101122.84;5042312;28;20737;-80
2022/12/26 01:33:55;;;;;;;38.10;24.40;;;;;;;8.68;100.00;101122.50;5040061;28;20049;-81
2022/12/26 01:36:21;;;;;;;37.25;23.52;;;;;;;8.75;100.00;101123.47;5037979;28;20071;-81
2022/12/26 01:38:46;;;;;;;35.42;22.48;;;;;;;8.75;100.00;101133.56;5038088;28;20025;-81
2022/12/26 01:41:18;;;;;;;38.50;22.75;;;;;;;8.76;100.00;101143.47;5034367;28;20041;-81
2022/12/26 01:44:02;;;;;;;35.80;21.38;;;;;;;8.79;100.00;101143.09;5035401;28;20041;-81
2022/12/26 01:46:37;;;;;;;36.58;22.00;;;;;;;8.84;100.00;101136.06;5036423;28;20036;-81
2022/12/26 01:49:15;;;;;;;31.40;21.08;;;;;;;8.74;100.00;101132.69;5035844;28;20048;-81
2022/12/26 01:51:46;;;;;;;29.38;20.88;;;;;;;8.69;100.00;101136.97;5033284;28;20021;-81
2022/12/26 01:54:13;;;;;;;28.30;19.92;;;;;;;8.61;100.00;101132.44;5040314;28;20033;-81
2022/12/26 01:56:40;;;;;;;;;;;;;;;8.58;100.00;101126.47;5034705;28;20037;-81
2022/12/26 01:59:09;;;;;;;28.73;18.60;;;;;;;8.47;100.00;101107.75;5037021;28;19919;-81
2022/12/26 02:01:40;;;;;;;28.33;18.63;;;;;;;8.38;100.00;101117.00;5035190;28;20040;-81
2022/12/26 02:06:56;;;;;;;25.95;18.25;;;;;;;8.42;100.00;101121.06;5039545;28;20044;-81
2022/12/26 02:09:22;;;;;;;27.85;18.75;;;;;;;8.29;100.00;101138.03;5034789;28;20115;-80
2022/12/26 02:11:59;;;;;;;27.65;18.45;;;;;;;8.23;100.00;101135.97;5041472;28;20040;-81
2022/12/26 02:14:27;;;;;;;27.25;17.85;;;;;;;8.23;100.00;101137.88;5035543;28;20199;-80
2022/12/26 02:16:53;;;;;;;27.15;18.13;;;;;;;8.26;100.00;101132.03;5040681;28;20052;-81
2022/12/26 02:19:58;;;;;;;30.48;19.55;;;;;;;8.27;100.00;101139.22;5041673;28;20025;-81
2022/12/26 02:22:53;;;;;;;27.10;18.33;;;;;;;8.27;100.00;101139.22;5032109;28;20029;-81
2022/12/26 02:26:04;;;;;;;29.73;19.65;;;;;;;8.40;100.00;101151.28;5037138;28;20030;-80
2022/12/26 02:28:39;;;;;;;32.95;19.75;;;;;;;8.46;100.00;101147.00;5034045;28;20107;-80
2022/12/26 02:31:13;;;;;;;31.23;21.08;;;;;;;8.46;100.00;101149.72;5034159;28;20059;-80
2022/12/26 02:33:56;;;;;;;30.15;21.52;;;;;;;8.50;100.00;101138.25;5037761;28;20059;-79
2022/12/26 02:37:09;;;;;;;35.35;22.92;;;;;;;8.54;100.00;101136.88;5036971;28;20060;-78
2022/12/26 02:40:10;;;;;;;37.13;21.83;;;;;;;8.58;100.00;101142.84;5038162;28;20417;-80
2022/12/26 02:42:47;;;;;;;37.45;22.58;;;;;;;8.57;100.00;101135.69;5004668;28;20041;-79
2022/12/26 02:48:37;;;;;;;36.90;21.55;;;;;;;8.58;100.00;101129.19;5038549;28;20040;-80
2022/12/26 03:14:21;;;;;;;28.98;17.17;;;;;;;8.36;100.00;101127.25;5044511;28;20051;-80
2022/12/26 03:19:56;;;;;;;28.27;17.30;;;;;;;8.27;100.00;101133.78;5038007;28;20387;-80
2022/12/26 03:22:29;;;;;;;21.33;13.73;;;;;;;8.33;100.00;101139.34;5035513;28;20092;-79
2022/12/26 03:27:39;;;;;;;19.15;14.05;;;;;;;8.32;100.00;101142.28;5042425;28;20032;-80
2022/12/26 03:32:53;;;;;;;20.70;13.40;;;;;;;8.37;100.00;101139.84;5042309;28;20055;-74
2022/12/26 03:35:19;;;;;;;19.48;12.68;;;;;;;8.36;100.00;101144.47;5042499;28;20433;-75
2022/12/26 03:38:12;;;;;;;19.20;13.20;;;;;;;8.30;100.00;101131.53;5041898;28;20037;-75
2022/12/26 04:19:48;;;;;;;11.75;7.85;;;;;;;8.20;100.00;101144.53;5039696;28;20071;-79
2022/12/26 04:45:04;;;;;;;10.13;6.40;;;;;;;8.45;100.00;101151.63;5037143;28;20401;-80
2022/12/26 04:47:31;;;;;;;11.40;6.78;;;;;;;8.47;100.00;101151.41;5041362;28;20123;-78
2022/12/26 04:50:11;;;;;;;;;;;;;;;8.50;100.00;101145.63;5039793;28;20033;-79
2022/12/26 04:52:59;;;;;;;9.13;6.57;;;;;;;8.52;100.00;101133.50;5038377;28;19920;-79
2022/12/26 04:55:39;;;;;;;11.48;7.20;;;;;;;8.53;100.00;101123.41;5038753;28;20025;-77
2022/12/26 04:58:04;;;;;;;10.02;5.75;;;;;;;8.49;100.00;101124.81;5037833;28;20495;-79
2022/12/26 05:00:30;;;;;;;10.93;6.60;;;;;;;8.51;100.00;101131.81;5039950;28;20025;-79
2022/12/26 05:11:30;;;;;;;10.15;6.88;;;;;;;8.48;100.00;101126.69;5041829;28;20528;-78
2022/12/26 05:13:57;;;;;;;7.93;6.28;;;;;;;8.43;100.00;101125.53;5034408;28;20560;-78
2022/12/26 05:30:19;;;;;;;12.45;6.90;;;;;;;8.31;100.00;101141.41;5040752;28;20756;-79
2022/12/26 05:35:29;;;;;;;7.80;5.97;;;;;;;8.32;100.00;101136.81;5040294;28;20538;-78
2022/12/26 05:37:55;;;;;;;7.25;5.55;;;;;;;8.28;100.00;101136.31;5035892;28;20029;-79
2022/12/26 05:40:20;;;;;;;8.35;6.05;;;;;;;8.33;100.00;101141.25;5039354;28;20531;-80
2022/12/26 05:42:45;;;;;;;9.88;6.43;;;;;;;8.29;100.00;101126.25;5034770;28;20350;-80
2022/12/26 05:45:11;;;;;;;11.27;6.57;;;;;;;8.34;100.00;101119.22;5030926;28;20044;-79
2022/12/26 05:47:36;;;;;;;8.15;6.55;;;;;;;8.39;100.00;101135.09;5033882;28;20087;-78
2022/12/26 05:50:02;;;;;;;10.60;6.35;;;;;;;8.42;100.00;101121.06;5040138;28;20033;-79
2022/12/26 05:52:27;;;;;;;11.75;6.80;;;;;;;8.39;100.00;101115.97;5031235;28;20024;-78
2022/12/26 05:54:53;;;;;;;14.15;6.90;;;;;;;8.40;100.00;101117.69;5039887;28;20103;-78
2022/12/26 05:57:18;;;;;;;9.00;6.28;;;;;;;8.41;100.00;101113.91;5036525;28;20060;-78
2022/12/26 05:59:43;;;;;;;8.20;5.85;;;;;;;8.35;100.00;101115.50;5038560;28;20459;-79
2022/12/26 06:02:09;;;;;;;7.15;5.47;;;;;;;8.32;100.00;101125.91;5031002;28;20116;-80
2022/12/26 06:04:35;;;;;;;8.00;5.47;;;;;;;8.33;100.00;101125.72;5032694;28;20025;-79
2022/12/26 06:07:01;;;;;;;11.32;5.72;;;;;;;8.35;100.00;101120.09;5040995;28;20524;-79
2022/12/26 06:09:27;;;;;;;11.82;5.75;;;;;;;8.37;100.00;101118.00;5039061;28;20119;-80
2022/12/26 06:11:52;;;;;;;6.50;5.55;;;;;;;8.39;100.00;101135.09;5040510;28;20025;-80
2022/12/26 06:14:18;;;;;;;10.68;4.97;;;;;;;8.36;100.00;101140.88;5034437;28;20095;-79
2022/12/26 06:16:43;;;;;;;12.65;6.18;;;;;;;8.36;100.00;101132.69;5031361;28;20033;-81
2022/12/26 06:19:08;;;;;;;7.93;5.45;;;;;;;8.32;100.00;101126.75;5042374;28;20031;-80
2022/12/26 06:21:34;;;;;;;9.15;5.15;;;;;;;8.39;100.00;101132.34;5037544;28;20055;-79
2022/12/26 06:24:00;;;;;;;8.02;4.53;;;;;;;8.37;100.00;101137.13;5023833;28;20041;-80
2022/12/26 06:26:26;;;;;;;6.88;5.47;;;;;;;8.38;100.00;101130.66;5037979;28;20035;-79
2022/12/26 06:28:51;;;;;;;9.07;4.35;;;;;;;8.35;100.00;101131.00;5040851;28;20033;-80
2022/12/26 06:31:22;;;;;;;13.95;5.28;;;;;;;8.41;100.00;101133.03;5037017;28;20071;-81
2022/12/26 06:33:55;;;;;;;8.82;4.63;;;;;;;8.45;100.00;101123.47;5032619;28;20203;-80
2022/12/26 06:36:22;;;;;;;14.43;5.07;;;;;;;8.42;100.00;101123.78;5034089;28;20490;-80
2022/12/26 06:38:48;;;;;;;10.10;4.95;;;;;;;8.44;100.00;101117.13;5035510;28;20025;-80
2022/12/26 06:41:16;;;;;;;7.45;4.95;;;;;;;8.41;100.00;101120.25;5038604;28;20120;-80
2022/12/26 06:43:42;;;;;;;7.05;4.38;;;;;;;8.39;100.00;101141.38;5037783;28;20024;-79
2022/12/26 06:46:11;;;;;;;9.52;4.40;;;;;;;8.42;100.00;101124.66;5040098;28;20504;-80
2022/12/26 06:48:39;;;;;;;11.63;5.18;;;;;;;8.42;100.00;101134.72;5037850;28;20381;-80
2022/12/26 06:51:08;;;;;;;6.97;4.50;;;;;;;8.44;100.00;101124.50;5045001;28;20364;-80
2022/12/26 06:53:34;;;;;;;11.88;4.32;;;;;;;8.40;100.00;101142.25;5025390;28;20091;-79
2022/12/26 06:56:07;;;;;;;12.27;4.28;;;;;;;8.43;100.00;101131.81;5049158;28;20022;-80
2022/12/26 06:58:32;;;;;;;10.52;4.65;;;;;;;8.41;100.00;101138.47;5040146;28;20040;-80
2022/12/26 07:01:13;;;;;;;14.45;4.32;;;;;;;8.42;100.00;101146.50;5036694;28;20033;-80
2022/12/26 07:03:39;;;;;;;9.60;4.00;;;;;;;8.45;100.00;101140.69;5041930;28;20036;-80
2022/12/26 07:06:09;;;;;;;7.68;4.03;;;;;;;8.55;100.00;101140.47;5043067;28;20402;-80
2022/12/26 07:08:34;;;;;;;8.30;3.92;;;;;;;8.55;100.00;101143.22;5037821;28;20029;-80
2022/12/26 07:11:00;;;;;;;5.82;3.78;;;;;;;8.47;100.00;101151.41;5040145;28;20026;-81
2022/12/26 07:13:25;;;;;;;6.00;3.55;;;;;;;8.60;100.00;101152.56;5043174;28;20033;-79
2022/12/26 07:15:50;;;;;;;7.70;3.72;;;;;;;8.65;100.00;101154.78;5040978;28;20040;-80
2022/12/26 07:18:16;;;;;;;11.05;3.58;;;;;;;8.71;100.00;101160.34;5042019;28;20040;-79
2022/12/26 07:20:41;;;;;;;7.65;3.10;;;;;;;8.70;100.00;101166.03;5043130;28;20442;-80
2022/12/26 07:23:07;;;;;;;9.32;3.67;;;;;;;8.74;100.00;101161.88;5036879;28;20052;-80
2022/12/26 07:25:32;;;;;;;7.60;3.35;;;;;;;8.80;100.00;101159.31;5043401;28;20043;-79
2022/12/26 07:27:59;;;;;;;5.88;3.45;;;;;;;8.79;100.00;101154.00;5053947;28;20112;-80
2022/12/26 07:30:24;;;;;;;8.93;3.85;;;;;;;8.89;100.00;101168.28;5035449;28;20029;-80
2022/12/26 07:32:50;;;;;;;9.25;3.95;;;;;;;8.90;100.00;101170.84;5036162;28;20044;-81
2022/12/26 07:35:15;;;;;;;14.82;4.05;;;;;;;8.85;100.00;101170.53;5039147;28;20053;-80
2022/12/26 07:37:40;;;;;;;11.25;3.88;;;;;;;8.92;100.00;101174.25;5037645;28;20028;-82
2022/12/26 07:40:06;;;;;;;6.05;3.50;;;;;;;8.90;100.00;101183.66;5034818;28;20043;-80
2022/12/26 07:42:32;;;;;;;6.90;4.25;;;;;;;8.87;100.00;101184.84;5039628;28;20400;-80
2022/12/26 07:44:57;;;;;;;12.70;4.18;;;;;;;8.90;100.00;101191.84;5038337;28;20029;-82
2022/12/26 07:47:23;;;;;;;11.88;3.97;;;;;;;8.94;100.00;101171.34;5038017;28;20044;-77
2022/12/26 07:49:48;;;;;;;9.45;3.88;;;;;;;8.89;100.00;101176.50;5037800;28;20027;-78
2022/12/26 07:52:13;;;;;;;14.07;4.45;;;;;;;8.88;100.00;101174.78;5035766;28;20110;-77
2022/12/26 07:54:39;;;;;;;19.93;4.83;;;;;;;8.89;100.00;101168.28;5035606;28;20021;-78
2022/12/26 07:57:04;;;;;;;9.20;3.75;;;;;;;8.89;100.00;101163.69;5043165;28;20029;-78
2022/12/26 07:59:30;;;;;;;15.38;5.20;;;;;;;8.93;100.00;101164.19;5039416;28;20067;-78
2022/12/26 08:01:56;;;;;;;13.98;4.88;;;;;;;8.91;100.00;101160.78;5045030;28;20094;-78
2022/12/26 08:04:23;;;;;;;13.25;6.82;;;;;;;8.91;100.00;101167.09;5038813;28;20040;-77
2022/12/26 08:06:48;;;;;;;14.02;8.10;;;;;;;8.89;100.00;101165.56;5042335;28;20029;-79
2022/12/26 08:09:14;;;;;;;15.43;6.07;;;;;;;8.92;100.00;101178.88;5035190;28;20044;-78
2022/12/26 08:11:41;;;;;;;9.65;5.28;;;;;;;9.00;100.00;101185.16;5047707;28;20032;-79
2022/12/26 08:14:08;;;;;;;17.53;5.83;;;;;;;9.00;100.00;101179.69;5036001;28;20047;-78
2022/12/26 08:16:33;;;;;;;15.40;4.72;;;;;;;9.03;100.00;101192.13;5038219;28;20033;-78
2022/12/26 08:19:02;;;;;;;14.60;4.22;;;;;;;9.10;100.00;101188.50;5038371;28;20036;-77
2022/12/26 08:21:27;;;;;;;14.85;4.15;;;;;;;9.07;100.00;101190.75;5035417;28;20429;-77
2022/12/26 08:23:53;;;;;;;10.00;3.40;;;;;;;9.09;100.00;101186.81;5036679;28;20160;-77
2022/12/26 08:26:22;;;;;;;18.58;3.50;;;;;;;9.18;100.00;101191.19;5032657;28;20426;-77
2022/12/26 08:28:49;;;;;;;7.93;3.00;;;;;;;9.13;100.00;101190.03;5040503;28;20032;-77
2022/12/26 08:31:15;;;;;;;8.98;3.50;;;;;;;9.21;100.00;101198.19;5037756;28;20176;-77
2022/12/26 08:33:40;;;;;;;11.32;3.15;;;;;;;9.25;100.00;101213.19;5041672;28;20472;-77
2022/12/26 08:36:08;;;;;;;8.13;3.08;;;;;;;9.26;100.00;101195.75;5033102;28;20035;-77
2022/12/26 08:38:35;;;;;;;16.67;3.33;;;;;;;9.37;100.00;101209.88;5032088;28;20456;-77
2022/12/26 08:41:01;;;;;;;10.07;3.35;;;;;;;9.37;100.00;101204.41;5035039;28;20122;-78
2022/12/26 08:43:27;;;;;;;7.63;2.63;;;;;;;9.40;100.00;101211.41;5037364;28;20044;-79
2022/12/26 08:46:00;;;;;;;10.93;3.13;;;;;;;9.38;100.00;101202.50;5037166;28;20025;-79
2022/12/26 08:48:26;;;;;;;10.18;3.85;;;;;;;9.37;100.00;101222.69;5029206;28;20146;-77
2022/12/26 08:51:05;;;;;;;8.30;3.03;;;;;;;9.41;100.00;101222.16;5027207;28;20112;-77
2022/12/26 08:53:32;;;;;;;9.23;3.13;;;;;;;9.29;100.00;101225.47;5043659;28;20032;-77
2022/12/26 08:55:58;;;;;;;16.75;3.58;;;;;;;9.30;100.00;101236.19;5041150;28;20365;-77
2022/12/26 08:58:24;;;;;;;8.77;3.17;;;;;;;9.24;100.00;101253.31;5040901;28;20041;-77
2022/12/26 09:00:50;;;;;;;12.68;3.42;;;;;;;9.15;100.00;101267.22;5037606;28;20043;-79
2022/12/26 09:03:16;;;;;;;8.33;2.90;;;;;;;9.08;100.00;101271.69;5037198;28;20025;-79
2022/12/26 09:05:42;;;;;;;5.80;3.37;;;;;;;9.03;100.00;101285.03;5028528;28;20032;-78
2022/12/26 09:08:09;;;;;;;6.30;3.25;;;;;;;8.93;100.00;101295.31;5036129;28;20480;-78
2022/12/26 09:10:34;;;;;;;22.45;3.72;;;;;;;8.88;100.00;101303.19;5029520;28;20048;-79
2022/12/26 09:13:00;;;;;;;13.60;3.05;;;;;;;8.80;100.00;101314.16;5029034;28;20064;-77
2022/12/26 09:15:25;;;;;;;8.40;2.50;;;;;;;8.76;100.00;101320.97;5032500;28;20119;-77
2022/12/26 09:17:50;;;;;;;9.23;2.38;;;;;;;8.63;100.00;101324.25;5034646;28;20602;-77
2022/12/26 09:20:16;;;;;;;18.40;2.88;;;;;;;8.61;100.00;101328.16;5038816;28;20036;-77
2022/12/26 09:22:50;;;;;;;14.13;2.58;;;;;;;8.58;100.00;101329.38;5037452;28;20033;-77
2022/12/26 09:25:21;;;;;;;13.93;2.45;;;;;;;8.51;100.00;101338.41;5039661;28;20028;-77
2022/12/26 09:27:48;;;;;;;13.43;2.42;;;;;;;8.48;100.00;101355.16;5033417;28;20116;-77
2022/12/26 09:30:14;;;;;;;14.40;2.83;;;;;;;8.51;100.00;101372.03;5040081;28;20106;-77
2022/12/26 09:32:40;;;;;;;16.02;2.58;;;;;;;8.48;100.00;101366.06;5050778;28;20028;-76
2022/12/26 09:35:06;;;;;;;14.20;2.38;;;;;;;8.43;100.00;101363.00;5029549;28;20424;-77
2022/12/26 09:37:32;;;;;;;14.93;2.22;;;;;;;8.48;100.00;101366.91;5035273;28;20029;-77
2022/12/26 09:39:57;;;;;;;10.23;2.03;;;;;;;8.45;100.00;101378.19;5035137;28;20040;-76
2022/12/26 09:42:50;;;;;;;16.77;3.15;;;;;;;8.40;100.00;101391.50;5037189;28;20017;-77
2022/12/26 09:45:18;;;;;;;28.88;4.55;;;;;;;8.38;100.00;101404.44;5038375;28;20028;-77
2022/12/26 09:48:25;;;;;;;16.90;3.22;;;;;;;8.36;100.00;101405.63;5032537;28;20148;-77
2022/12/26 09:50:51;;;;;;;23.52;3.10;;;;;;;8.31;100.00;101425.25;5037727;28;20036;-76
2022/12/26 09:53:33;;;;;;;18.10;4.37;;;;;;;8.24;100.00;101417.91;5036039;28;20040;-77
2022/12/26 09:56:13;;;;;;;16.45;3.10;;;;;;;8.14;100.00;101422.63;5039056;28;20022;-77
2022/12/26 09:58:44;;;;;;;11.90;3.25;;;;;;;8.02;100.00;101429.44;5036265;28;20366;-77
2022/12/26 10:01:20;;;;;;;15.80;2.90;;;;;;;8.03;100.00;101437.44;5039955;28;20021;-77
2022/12/26 10:03:51;;;;;;;17.15;3.35;;;;;;;7.96;100.00;101446.47;5033435;28;20025;-77
2022/12/26 10:06:38;;;;;;;18.75;2.47;;;;;;;7.80;100.00;101447.25;5028867;28;20035;-78
2022/12/26 10:09:11;;;;;;;13.90;2.42;;;;;;;7.69;100.00;101465.78;5034016;28;20036;-77
2022/12/26 10:11:55;;;;;;;22.65;2.35;;;;;;;7.67;100.00;101478.72;5038211;28;20026;-78
2022/12/26 10:14:35;;;;;;;19.17;3.30;;;;;;;7.62;100.00;101472.88;5032693;28;20048;-77
2022/12/26 10:17:20;;;;;;;13.52;2.45;;;;;;;7.64;100.00;101468.16;5036310;28;20033;-77
2022/12/26 10:20:13;;;;;;;8.43;2.88;;;;;;;7.72;100.00;101484.53;5031344;28;20690;-78
2022/12/26 10:23:20;;;;;;;8.55;2.08;;;;;;;7.69;100.00;101487.59;5033817;28;20147;-78
2022/12/26 10:25:54;;;;;;;14.43;2.63;;;;;;;7.68;100.00;101486.72;5031216;28;20812;-77
2022/12/26 10:28:32;;;;;;;16.77;2.50;;;;;;;7.71;100.00;101500.06;5036894;28;20472;-77
2022/12/26 10:31:04;;;;;;;12.80;2.78;;;;;;;7.66;100.00;101510.59;5033799;28;20563;-78
2022/12/26 10:33:44;;;;;;;11.38;2.45;;;;;;;7.67;100.00;101523.19;5034925;28;20044;-77
2022/12/26 10:36:17;;;;;;;14.30;2.33;;;;;;;7.63;99.80;101523.69;5035454;28;20381;-78
2022/12/26 10:38:46;;;;;;;10.48;1.83;;;;;;;7.60;98.87;101537.63;5033733;28;20025;-77
2022/12/26 10:41:17;;;;;;;20.38;3.35;;;;;;;7.54;99.76;101535.56;5037443;28;20034;-77
2022/12/26 10:43:44;;;;;;;8.10;2.53;;;;;;;7.51;100.00;101544.91;5032418;28;20081;-77
2022/12/26 10:46:28;;;;;;;11.32;2.33;;;;;;;7.56;100.00;101549.88;5034109;28;20469;-77
2022/12/26 10:48:54;;;;;;;16.17;2.95;;;;;;;7.50;98.91;101543.22;5031915;28;20045;-77
2022/12/26 10:51:20;;;;;;;14.50;2.83;;;;;;;7.47;99.40;101553.59;5032582;28;20393;-76
2022/12/26 10:53:49;;;;;;;8.65;2.10;;;;;;;7.41;99.67;101556.91;5028588;28;21233;-76
2022/12/26 10:56:15;;;;;;;27.95;2.40;;;;;;;7.47;100.00;101559.88;5032464;28;20038;-77
2022/12/26 10:58:42;;;;;;;12.77;2.60;;;;;;;7.45;98.70;101559.19;5033306;28;20032;-78
2022/12/26 11:01:26;;;;;;;;;;;;;;;7.47;98.71;101550.84;5044668;28;20088;-77
2022/12/26 11:04:01;;;;;;;8.52;2.42;;;;;;;7.47;96.79;101553.59;5036871;28;19917;-75
2022/12/26 11:06:50;;;;;;;14.18;3.10;;;;;;;7.47;95.67;101573.50;5038374;28;20025;-76
2022/12/26 11:09:44;;;;;;;12.30;1.98;;;;;;;7.48;93.51;101567.03;5035150;28;20222;-76
2022/12/26 11:12:24;;;;;;;7.00;1.73;;;;;;;7.53;95.72;101553.78;5035966;28;20038;-76
2022/12/26 11:14:57;;;;;;;11.15;2.50;;;;;;;7.56;96.22;101558.06;5036542;28;20068;-77
2022/12/26 11:17:27;;;;;;;12.23;2.05;;;;;;;7.54;94.44;101571.00;5033144;28;20465;-77
2022/12/26 11:20:14;;;;;;;9.70;1.92;;;;;;;7.36;92.62;101572.94;5040335;28;20039;-76
2022/12/26 11:22:41;;;;;;;8.63;1.77;;;;;;;7.31;93.05;101569.81;5030420;28;20389;-76
2022/12/26 11:25:06;;;;;;;21.27;2.05;;;;;;;7.22;93.44;101587.09;5040915;28;20033;-77
2022/12/26 11:27:32;;;;;;;11.98;2.10;;;;;;;7.10;94.70;101581.03;5031171;28;20423;-79
2022/12/26 11:30:26;;;;;;;6.45;1.95;;;;;;;7.13;93.63;101586.19;5031252;28;20406;-78
2022/12/26 11:33:22;;;;;;;11.63;2.50;;;;;;;7.13;92.93;101593.50;5033476;28;20044;-77
2022/12/26 11:36:04;;;;;;;16.90;1.92;;;;;;;7.04;92.06;101597.16;5037124;28;20056;-77
2022/12/26 11:38:35;;;;;;;9.70;2.78;;;;;;;7.07;93.07;101591.41;5038994;28;20385;-77
2022/12/26 11:41:30;;;;;;;7.25;1.80;;;;;;;7.12;93.82;101603.53;5040799;28;20373;-77
2022/12/26 11:44:08;;;;;;;7.40;2.22;;;;;;;7.15;92.80;101605.09;5037751;28;20037;-77
2022/12/26 11:47:00;;;;;;;;;;;;;;;7.18;91.11;101605.63;5039540;28;20091;-77
2022/12/26 11:49:39;;;;;;;11.45;3.25;;;;;;;7.18;92.85;101602.03;5035464;28;19999;-77
2022/12/26 11:52:36;;;;;;;7.18;2.15;;;;;;;7.21;94.08;101601.75;5037194;28;20037;-77
2022/12/26 11:55:21;;;;;;;10.82;1.95;;;;;;;7.30;92.94;101601.66;5050411;28;20017;-77
2022/12/26 11:58:05;;;;;;;8.77;1.70;;;;;;;7.38;91.55;101598.13;5037172;28;20028;-77
2022/12/26 12:00:32;;;;;;;10.63;1.92;;;;;;;7.30;93.19;101600.78;5043880;28;20021;-77
2022/12/26 12:02:58;;;;;;;5.80;1.70;;;;;;;7.38;93.35;101600.88;5041249;28;20036;-77
2022/12/26 12:05:42;;;;;;;16.83;2.70;;;;;;;7.46;91.83;101611.81;5037409;28;20544;-77
2022/12/26 12:08:25;;;;;;;16.80;3.33;;;;;;;7.54;92.68;101614.63;5043053;28;20587;-77
2022/12/26 12:11:03;;;;;;;9.23;1.55;;;;;;;7.52;90.77;101624.84;5033565;28;20044;-78
2022/12/26 12:14:09;;;;;;;4.22;1.63;;;;;;;7.50;89.29;101621.38;5040072;28;20111;-79
2022/12/26 12:16:51;;;;;;;9.90;1.60;;;;;;;7.46;90.66;101626.31;5044121;28;20037;-78
2022/12/26 12:19:24;;;;;;;10.45;1.60;;;;;;;7.33;88.98;101628.59;5049928;28;20036;-78
2022/12/26 12:22:23;;;;;;;6.72;1.77;;;;;;;7.32;88.18;101620.56;5042599;28;20369;-77
2022/12/26 12:25:03;;;;;;;8.32;2.17;;;;;;;7.24;89.16;101636.84;5042803;28;20484;-79
2022/12/26 12:27:51;;;;;;;4.13;1.10;;;;;;;7.14;87.22;101639.66;5046763;28;20033;-78
2022/12/26 12:30:37;;;;;;;3.70;1.40;;;;;;;7.12;86.30;101638.09;5039320;28;20514;-78
2022/12/26 12:33:33;;;;;;;8.23;2.17;;;;;;;7.09;86.45;101644.72;5044353;28;20120;-78
2022/12/26 12:36:27;;;;;;;7.32;1.58;;;;;;;7.15;84.67;101652.25;5043580;28;20057;-78
2022/12/26 12:39:32;;;;;;;9.25;1.88;;;;;;;7.10;86.08;101657.31;5042687;28;20033;-78
2022/12/26 12:42:07;;;;;;;13.95;1.50;;;;;;;7.20;86.34;101655.38;5035001;28;20036;-78
2022/12/26 12:44:43;;;;;;;5.72;1.40;;;;;;;7.26;86.66;101662.91;5031917;28;20029;-78
2022/12/26 12:47:29;;;;;;;11.17;1.73;;;;;;;7.14;85.65;101658.72;5042069;28;20377;-79
2022/12/26 12:50:30;;;;;;;7.47;1.77;;;;;;;7.01;87.96;101654.66;5043768;28;20141;-78
2022/12/26 12:53:14;;;;;;;6.85;1.75;;;;;;;7.05;89.97;101662.38;5041256;28;20523;-77
2022/12/26 12:56:10;;;;;;;9.90;1.88;;;;;;;7.05;87.82;101656.91;5037885;28;20515;-77
2022/12/26 12:58:35;;;;;;;3.78;1.67;;;;;;;7.19;88.18;101663.69;5040391;28;20159;-77
2022/12/26 13:01:12;;;;;;;10.65;2.25;;;;;;;7.20;89.89;101671.72;5027359;28;20112;-77
2022/12/26 13:03:56;;;;;;;5.47;2.10;;;;;;;7.17;89.00;101672.03;5037613;28;20509;-78
2022/12/26 13:06:33;;;;;;;4.22;2.00;;;;;;;7.18;89.85;101665.56;5031592;28;20507;-79
2022/12/26 13:09:29;;;;;;;3.75;1.70;;;;;;;7.18;88.03;101670.16;5031375;28;20017;-79
2022/12/26 13:12:02;;;;;;;3.47;1.77;;;;;;;7.21;88.53;101667.97;5023515;28;20044;-78
2022/12/26 13:14:35;;;;;;;2.97;1.35;;;;;;;7.22;87.64;101664.22;5041216;28;20396;-76
2022/12/26 13:17:06;;;;;;;9.60;2.15;;;;;;;7.25;87.72;101663.94;5033596;28;20051;-77
2022/12/26 13:19:41;;;;;;;10.38;1.80;;;;;;;7.30;87.84;101671.63;5034021;28;20027;-80
2022/12/26 13:22:22;;;;;;;7.25;1.50;;;;;;;7.28;86.12;101677.25;5023828;28;20053;-77
2022/12/26 13:24:55;;;;;;;5.00;1.27;;;;;;;7.20;86.05;101677.16;5031858;28;20033;-77
2022/12/26 13:27:26;;;;;;;9.20;1.98;;;;;;;7.27;85.84;101677.41;5035911;28;20392;-79
2022/12/26 13:29:52;;;;;;;8.38;1.60;;;;;;;7.23;85.08;101682.31;5029074;28;20053;-77
2022/12/26 13:32:22;;;;;;;5.85;1.35;;;;;;;7.36;84.78;101684.66;5031570;28;20170;-78
2022/12/26 13:34:50;;;;;;;5.82;1.67;;;;;;;7.33;84.49;101688.53;5029417;28;20503;-78
2022/12/26 13:37:34;;;;;;;6.43;1.60;;;;;;;7.30;84.83;101696.16;5036132;28;20029;-78
2022/12/26 13:40:02;;;;;;;5.97;2.35;;;;;;;7.21;83.72;101697.94;5030117;28;20029;-78
2022/12/26 13:45:34;;;;;;;10.48;1.75;;;;;;;7.10;87.20;101719.97;5033871;28;20075;-78
2022/12/26 13:48:15;;;;;;;4.38;1.42;;;;;;;7.11;87.61;101712.66;5038505;28;20524;-79
2022/12/26 13:50:54;;;;;;;11.38;2.38;;;;;;;7.04;87.19;101712.41;5041509;28;20385;-78
2022/12/26 13:53:37;;;;;;;14.68;1.92;;;;;;;7.08;86.66;101712.94;5034165;28;20033;-78